sensor_id;sensor_type;location;lat;lon;timestamp;P1;durP1;ratioP1;P2;durP2;ratioP2
21245;SDS011;10781;50.928;4.440;2023-09-12T00:01:40;19.33;;;13.43;;
21245;SDS011;10781;50.928;4.440;2023-09-12T00:04:06;19.40;;;12.68;;
21245;SDS011;10781;50.928;4.440;2023-09-12T00:06:31;19.63;;;14.00;;
21245;SDS011;10781;50.928;4.440;2023-09-12T00:08:57;19.35;;;13.25;;
21245;SDS011;10781;50.928;4.440;2023-09-12T00:11:23;20.77;;;13.35;;
21245;SDS011;10781;50.928;4.440;2023-09-12T00:13:50;19.20;;;12.80;;
21245;SDS011;10781;50.928;4.440;2023-09-12T00:16:16;19.00;;;13.50;;
21245;SDS011;10781;50.928;4.440;2023-09-12T00:18:42;19.67;;;13.40;;
21245;SDS011;10781;50.928;4.440;2023-09-12T00:21:08;15.40;;;12.25;;
21245;SDS011;10781;50.928;4.440;2023-09-12T00:23:33;16.92;;;12.02;;
21245;SDS011;10781;50.928;4.440;2023-09-12T00:25:59;21.30;;;13.07;;
21245;SDS011;10781;50.928;4.440;2023-09-12T00:28:25;21.08;;;13.07;;
21245;SDS011;10781;50.928;4.440;2023-09-12T00:30:51;18.17;;;13.02;;
21245;SDS011;10781;50.928;4.440;2023-09-12T00:33:17;17.98;;;12.18;;
21245;SDS011;10781;50.928;4.440;2023-09-12T00:35:43;17.00;;;12.15;;
21245;SDS011;10781;50.928;4.440;2023-09-12T00:38:09;17.75;;;12.15;;
21245;SDS011;10781;50.928;4.440;2023-09-12T00:40:35;19.73;;;12.48;;
21245;SDS011;10781;50.928;4.440;2023-09-12T00:43:00;19.35;;;12.45;;
21245;SDS011;10781;50.928;4.440;2023-09-12T00:45:26;16.27;;;11.95;;
21245;SDS011;10781;50.928;4.440;2023-09-12T00:47:51;18.35;;;12.25;;
21245;SDS011;10781;50.928;4.440;2023-09-12T00:50:18;14.88;;;12.23;;
21245;SDS011;10781;50.928;4.440;2023-09-12T00:52:47;15.98;;;11.32;;
21245;SDS011;10781;50.928;4.440;2023-09-12T00:55:13;17.98;;;11.90;;
21245;SDS011;10781;50.928;4.440;2023-09-12T00:57:39;17.05;;;11.63;;
21245;SDS011;10781;50.928;4.440;2023-09-12T01:00:06;16.08;;;12.23;;
21245;SDS011;10781;50.928;4.440;2023-09-12T01:02:37;18.88;;;13.05;;
21245;SDS011;10781;50.928;4.440;2023-09-12T01:05:05;16.42;;;12.00;;
21245;SDS011;10781;50.928;4.440;2023-09-12T01:07:32;18.67;;;13.13;;
21245;SDS011;10781;50.928;4.440;2023-09-12T01:09:59;20.42;;;13.30;;
21245;SDS011;10781;50.928;4.440;2023-09-12T01:12:24;19.23;;;13.23;;
21245;SDS011;10781;50.928;4.440;2023-09-12T01:14:50;20.63;;;13.93;;
21245;SDS011;10781;50.928;4.440;2023-09-12T01:17:16;20.40;;;14.20;;
21245;SDS011;10781;50.928;4.440;2023-09-12T01:19:42;23.67;;;15.00;;
21245;SDS011;10781;50.928;4.440;2023-09-12T01:22:15;25.30;;;15.57;;
21245;SDS011;10781;50.928;4.440;2023-09-12T01:27:46;22.27;;;14.02;;
21245;SDS011;10781;50.928;4.440;2023-09-12T01:30:15;18.83;;;13.85;;
21245;SDS011;10781;50.928;4.440;2023-09-12T01:32:45;22.17;;;15.43;;
21245;SDS011;10781;50.928;4.440;2023-09-12T01:35:12;19.52;;;14.43;;
21245;SDS011;10781;50.928;4.440;2023-09-12T01:37:38;22.65;;;14.82;;
21245;SDS011;10781;50.928;4.440;2023-09-12T01:40:04;22.25;;;14.80;;
21245;SDS011;10781;50.928;4.440;2023-09-12T01:42:40;20.88;;;14.43;;
21245;SDS011;10781;50.928;4.440;2023-09-12T01:45:10;20.42;;;14.07;;
21245;SDS011;10781;50.928;4.440;2023-09-12T01:47:38;21.35;;;14.73;;
21245;SDS011;10781;50.928;4.440;2023-09-12T01:50:06;20.63;;;14.98;;
21245;SDS011;10781;50.928;4.440;2023-09-12T01:52:34;24.00;;;15.95;;
21245;SDS011;10781;50.928;4.440;2023-09-12T01:55:00;26.98;;;18.27;;
21245;SDS011;10781;50.928;4.440;2023-09-12T01:57:27;29.23;;;19.35;;
21245;SDS011;10781;50.928;4.440;2023-09-12T01:59:53;39.47;;;24.65;;
21245;SDS011;10781;50.928;4.440;2023-09-12T02:02:19;36.88;;;24.98;;
21245;SDS011;10781;50.928;4.440;2023-09-12T02:04:47;37.53;;;24.52;;
21245;SDS011;10781;50.928;4.440;2023-09-12T02:07:25;39.63;;;26.27;;
21245;SDS011;10781;50.928;4.440;2023-09-12T02:09:54;44.53;;;27.50;;
21245;SDS011;10781;50.928;4.440;2023-09-12T02:12:20;49.28;;;29.20;;
21245;SDS011;10781;50.928;4.440;2023-09-12T02:14:45;38.47;;;25.23;;
21245;SDS011;10781;50.928;4.440;2023-09-12T02:17:11;39.70;;;25.73;;
21245;SDS011;10781;50.928;4.440;2023-09-12T02:19:37;41.60;;;26.38;;
21245;SDS011;10781;50.928;4.440;2023-09-12T02:22:02;41.72;;;27.52;;
21245;SDS011;10781;50.928;4.440;2023-09-12T02:24:28;43.50;;;27.65;;
21245;SDS011;10781;50.928;4.440;2023-09-12T02:26:54;41.80;;;27.75;;
21245;SDS011;10781;50.928;4.440;2023-09-12T02:29:19;39.67;;;27.60;;
21245;SDS011;10781;50.928;4.440;2023-09-12T02:31:45;40.65;;;27.50;;
21245;SDS011;10781;50.928;4.440;2023-09-12T02:34:11;41.88;;;27.58;;
21245;SDS011;10781;50.928;4.440;2023-09-12T02:36:37;43.67;;;26.73;;
21245;SDS011;10781;50.928;4.440;2023-09-12T02:39:02;38.05;;;25.60;;
21245;SDS011;10781;50.928;4.440;2023-09-12T02:41:28;36.22;;;25.20;;
21245;SDS011;10781;50.928;4.440;2023-09-12T02:43:54;37.47;;;25.67;;
21245;SDS011;10781;50.928;4.440;2023-09-12T02:46:19;36.13;;;25.52;;
21245;SDS011;10781;50.928;4.440;2023-09-12T02:48:45;34.80;;;24.67;;
21245;SDS011;10781;50.928;4.440;2023-09-12T02:51:11;34.95;;;23.67;;
21245;SDS011;10781;50.928;4.440;2023-09-12T02:53:37;33.97;;;24.33;;
21245;SDS011;10781;50.928;4.440;2023-09-12T02:56:03;35.65;;;23.70;;
21245;SDS011;10781;50.928;4.440;2023-09-12T02:58:28;35.08;;;23.98;;
21245;SDS011;10781;50.928;4.440;2023-09-12T03:00:54;34.13;;;24.55;;
21245;SDS011;10781;50.928;4.440;2023-09-12T03:03:20;38.42;;;25.50;;
21245;SDS011;10781;50.928;4.440;2023-09-12T03:05:45;34.38;;;24.35;;
21245;SDS011;10781;50.928;4.440;2023-09-12T03:08:11;36.67;;;24.25;;
21245;SDS011;10781;50.928;4.440;2023-09-12T03:10:37;33.80;;;23.75;;
21245;SDS011;10781;50.928;4.440;2023-09-12T03:13:02;31.13;;;21.50;;
21245;SDS011;10781;50.928;4.440;2023-09-12T03:15:28;31.02;;;22.10;;
21245;SDS011;10781;50.928;4.440;2023-09-12T03:17:54;34.25;;;22.40;;
21245;SDS011;10781;50.928;4.440;2023-09-12T03:20:19;29.85;;;21.55;;
21245;SDS011;10781;50.928;4.440;2023-09-12T03:22:45;30.05;;;21.30;;
21245;SDS011;10781;50.928;4.440;2023-09-12T03:25:11;29.45;;;20.50;;
21245;SDS011;10781;50.928;4.440;2023-09-12T03:27:37;29.23;;;21.08;;
21245;SDS011;10781;50.928;4.440;2023-09-12T03:30:03;31.00;;;20.13;;
21245;SDS011;10781;50.928;4.440;2023-09-12T03:32:30;28.30;;;20.58;;
21245;SDS011;10781;50.928;4.440;2023-09-12T03:34:55;27.63;;;18.77;;
21245;SDS011;10781;50.928;4.440;2023-09-12T03:37:21;29.13;;;19.73;;
21245;SDS011;10781;50.928;4.440;2023-09-12T03:39:47;27.23;;;19.15;;
21245;SDS011;10781;50.928;4.440;2023-09-12T03:42:12;26.67;;;19.48;;
21245;SDS011;10781;50.928;4.440;2023-09-12T03:44:38;23.75;;;16.58;;
21245;SDS011;10781;50.928;4.440;2023-09-12T03:47:04;28.40;;;18.48;;
21245;SDS011;10781;50.928;4.440;2023-09-12T03:49:29;25.58;;;18.42;;
21245;SDS011;10781;50.928;4.440;2023-09-12T03:51:55;26.73;;;18.30;;
21245;SDS011;10781;50.928;4.440;2023-09-12T03:54:22;23.27;;;17.58;;
21245;SDS011;10781;50.928;4.440;2023-09-12T03:56:47;27.95;;;18.13;;
21245;SDS011;10781;50.928;4.440;2023-09-12T03:59:13;24.70;;;17.60;;
21245;SDS011;10781;50.928;4.440;2023-09-12T04:01:39;27.13;;;19.10;;
21245;SDS011;10781;50.928;4.440;2023-09-12T04:04:04;27.10;;;17.45;;
21245;SDS011;10781;50.928;4.440;2023-09-12T04:06:31;28.25;;;17.92;;
21245;SDS011;10781;50.928;4.440;2023-09-12T04:08:56;25.48;;;17.98;;
21245;SDS011;10781;50.928;4.440;2023-09-12T04:11:22;27.73;;;18.23;;
21245;SDS011;10781;50.928;4.440;2023-09-12T04:13:48;26.10;;;17.63;;
21245;SDS011;10781;50.928;4.440;2023-09-12T04:16:13;28.38;;;17.85;;
21245;SDS011;10781;50.928;4.440;2023-09-12T04:18:39;24.52;;;17.42;;
21245;SDS011;10781;50.928;4.440;2023-09-12T04:21:05;25.45;;;17.98;;
21245;SDS011;10781;50.928;4.440;2023-09-12T04:23:30;25.58;;;17.05;;
21245;SDS011;10781;50.928;4.440;2023-09-12T04:25:56;32.45;;;18.70;;
21245;SDS011;10781;50.928;4.440;2023-09-12T04:28:22;26.52;;;18.92;;
21245;SDS011;10781;50.928;4.440;2023-09-12T04:30:47;25.40;;;18.27;;
21245;SDS011;10781;50.928;4.440;2023-09-12T04:33:13;25.10;;;18.88;;
21245;SDS011;10781;50.928;4.440;2023-09-12T04:35:39;28.90;;;19.45;;
21245;SDS011;10781;50.928;4.440;2023-09-12T04:38:04;28.15;;;19.50;;
21245;SDS011;10781;50.928;4.440;2023-09-12T04:40:30;29.63;;;20.10;;
21245;SDS011;10781;50.928;4.440;2023-09-12T04:42:56;30.77;;;19.45;;
21245;SDS011;10781;50.928;4.440;2023-09-12T04:45:22;27.70;;;20.00;;
21245;SDS011;10781;50.928;4.440;2023-09-12T04:47:47;30.38;;;18.92;;
21245;SDS011;10781;50.928;4.440;2023-09-12T04:50:13;27.35;;;19.33;;
21245;SDS011;10781;50.928;4.440;2023-09-12T04:52:38;26.42;;;19.48;;
21245;SDS011;10781;50.928;4.440;2023-09-12T04:55:04;27.60;;;20.73;;
21245;SDS011;10781;50.928;4.440;2023-09-12T04:57:30;25.60;;;18.20;;
21245;SDS011;10781;50.928;4.440;2023-09-12T04:59:56;26.92;;;19.27;;
21245;SDS011;10781;50.928;4.440;2023-09-12T05:02:23;26.40;;;18.95;;
21245;SDS011;10781;50.928;4.440;2023-09-12T05:04:50;26.98;;;18.55;;
21245;SDS011;10781;50.928;4.440;2023-09-12T05:07:15;27.85;;;19.15;;
21245;SDS011;10781;50.928;4.440;2023-09-12T05:09:41;31.75;;;19.77;;
21245;SDS011;10781;50.928;4.440;2023-09-12T05:12:07;30.98;;;20.25;;
21245;SDS011;10781;50.928;4.440;2023-09-12T05:14:33;31.42;;;21.55;;
21245;SDS011;10781;50.928;4.440;2023-09-12T05:16:59;32.03;;;22.15;;
21245;SDS011;10781;50.928;4.440;2023-09-12T05:19:26;32.35;;;22.35;;
21245;SDS011;10781;50.928;4.440;2023-09-12T05:21:52;35.28;;;22.00;;
21245;SDS011;10781;50.928;4.440;2023-09-12T05:24:18;32.33;;;22.17;;
21245;SDS011;10781;50.928;4.440;2023-09-12T05:26:43;34.15;;;20.90;;
21245;SDS011;10781;50.928;4.440;2023-09-12T05:29:09;36.95;;;22.92;;
21245;SDS011;10781;50.928;4.440;2023-09-12T05:31:35;33.28;;;21.95;;
21245;SDS011;10781;50.928;4.440;2023-09-12T05:34:01;32.65;;;22.02;;
21245;SDS011;10781;50.928;4.440;2023-09-12T05:36:26;36.92;;;21.63;;
21245;SDS011;10781;50.928;4.440;2023-09-12T05:38:52;33.75;;;22.33;;
21245;SDS011;10781;50.928;4.440;2023-09-12T05:41:18;33.42;;;22.38;;
21245;SDS011;10781;50.928;4.440;2023-09-12T05:43:43;35.92;;;21.13;;
21245;SDS011;10781;50.928;4.440;2023-09-12T05:46:09;37.92;;;22.63;;
21245;SDS011;10781;50.928;4.440;2023-09-12T05:48:35;38.88;;;22.60;;
21245;SDS011;10781;50.928;4.440;2023-09-12T05:51:00;40.10;;;22.35;;
21245;SDS011;10781;50.928;4.440;2023-09-12T05:53:26;36.47;;;22.15;;
21245;SDS011;10781;50.928;4.440;2023-09-12T05:55:51;42.65;;;22.27;;
21245;SDS011;10781;50.928;4.440;2023-09-12T05:58:17;37.78;;;22.25;;
21245;SDS011;10781;50.928;4.440;2023-09-12T06:00:43;38.00;;;21.40;;
21245;SDS011;10781;50.928;4.440;2023-09-12T06:03:09;37.05;;;22.05;;
21245;SDS011;10781;50.928;4.440;2023-09-12T06:05:34;44.83;;;23.40;;
21245;SDS011;10781;50.928;4.440;2023-09-12T06:08:00;40.50;;;23.15;;
21245;SDS011;10781;50.928;4.440;2023-09-12T06:10:25;39.35;;;22.40;;
21245;SDS011;10781;50.928;4.440;2023-09-12T06:12:51;35.97;;;22.08;;
21245;SDS011;10781;50.928;4.440;2023-09-12T06:15:17;37.35;;;22.90;;
21245;SDS011;10781;50.928;4.440;2023-09-12T06:17:42;40.47;;;23.40;;
21245;SDS011;10781;50.928;4.440;2023-09-12T06:20:08;34.45;;;22.15;;
21245;SDS011;10781;50.928;4.440;2023-09-12T06:22:34;41.70;;;23.60;;
21245;SDS011;10781;50.928;4.440;2023-09-12T06:25:00;38.45;;;22.73;;
21245;SDS011;10781;50.928;4.440;2023-09-12T06:27:26;37.70;;;25.70;;
21245;SDS011;10781;50.928;4.440;2023-09-12T06:29:52;34.92;;;22.73;;
21245;SDS011;10781;50.928;4.440;2023-09-12T06:32:18;33.17;;;21.35;;
21245;SDS011;10781;50.928;4.440;2023-09-12T06:34:44;31.95;;;21.02;;
21245;SDS011;10781;50.928;4.440;2023-09-12T06:37:13;31.88;;;18.73;;
21245;SDS011;10781;50.928;4.440;2023-09-12T06:39:38;28.80;;;18.95;;
21245;SDS011;10781;50.928;4.440;2023-09-12T06:42:04;27.85;;;18.80;;
21245;SDS011;10781;50.928;4.440;2023-09-12T06:44:30;33.20;;;20.17;;
21245;SDS011;10781;50.928;4.440;2023-09-12T06:46:56;27.83;;;18.15;;
21245;SDS011;10781;50.928;4.440;2023-09-12T06:49:21;32.28;;;19.63;;
21245;SDS011;10781;50.928;4.440;2023-09-12T06:51:47;27.35;;;18.88;;
21245;SDS011;10781;50.928;4.440;2023-09-12T06:54:13;31.42;;;19.92;;
21245;SDS011;10781;50.928;4.440;2023-09-12T06:56:40;33.40;;;21.02;;
21245;SDS011;10781;50.928;4.440;2023-09-12T06:59:07;28.27;;;19.10;;
21245;SDS011;10781;50.928;4.440;2023-09-12T07:01:33;30.95;;;18.50;;
21245;SDS011;10781;50.928;4.440;2023-09-12T07:03:59;32.72;;;20.27;;
21245;SDS011;10781;50.928;4.440;2023-09-12T07:06:25;33.17;;;19.70;;
21245;SDS011;10781;50.928;4.440;2023-09-12T07:08:51;29.00;;;20.40;;
21245;SDS011;10781;50.928;4.440;2023-09-12T07:11:16;30.30;;;19.42;;
21245;SDS011;10781;50.928;4.440;2023-09-12T07:13:44;28.50;;;18.83;;
21245;SDS011;10781;50.928;4.440;2023-09-12T07:16:10;30.00;;;18.83;;
21245;SDS011;10781;50.928;4.440;2023-09-12T07:18:35;26.67;;;18.98;;
21245;SDS011;10781;50.928;4.440;2023-09-12T07:21:02;25.70;;;18.60;;
21245;SDS011;10781;50.928;4.440;2023-09-12T07:23:29;28.70;;;18.90;;
21245;SDS011;10781;50.928;4.440;2023-09-12T07:25:55;27.38;;;18.65;;
21245;SDS011;10781;50.928;4.440;2023-09-12T07:28:24;25.02;;;18.00;;
21245;SDS011;10781;50.928;4.440;2023-09-12T07:30:50;24.08;;;16.35;;
21245;SDS011;10781;50.928;4.440;2023-09-12T07:33:16;26.05;;;18.45;;
21245;SDS011;10781;50.928;4.440;2023-09-12T07:35:42;26.85;;;18.90;;
21245;SDS011;10781;50.928;4.440;2023-09-12T07:38:08;27.63;;;19.00;;
21245;SDS011;10781;50.928;4.440;2023-09-12T07:40:33;28.52;;;19.00;;
21245;SDS011;10781;50.928;4.440;2023-09-12T07:42:59;27.52;;;19.88;;
21245;SDS011;10781;50.928;4.440;2023-09-12T07:45:24;30.30;;;19.85;;
21245;SDS011;10781;50.928;4.440;2023-09-12T07:47:50;26.98;;;19.23;;
21245;SDS011;10781;50.928;4.440;2023-09-12T07:50:16;25.38;;;18.85;;
21245;SDS011;10781;50.928;4.440;2023-09-12T07:52:42;28.60;;;18.58;;
21245;SDS011;10781;50.928;4.440;2023-09-12T07:55:07;25.50;;;18.27;;
21245;SDS011;10781;50.928;4.440;2023-09-12T07:57:33;26.90;;;18.35;;
21245;SDS011;10781;50.928;4.440;2023-09-12T08:00:00;25.92;;;17.20;;
21245;SDS011;10781;50.928;4.440;2023-09-12T08:02:26;25.17;;;17.00;;
21245;SDS011;10781;50.928;4.440;2023-09-12T08:04:51;25.20;;;17.52;;
21245;SDS011;10781;50.928;4.440;2023-09-12T08:07:18;25.58;;;17.02;;
21245;SDS011;10781;50.928;4.440;2023-09-12T08:09:51;22.08;;;15.50;;
21245;SDS011;10781;50.928;4.440;2023-09-12T08:12:24;24.70;;;17.83;;
21245;SDS011;10781;50.928;4.440;2023-09-12T08:14:52;23.42;;;16.02;;
21245;SDS011;10781;50.928;4.440;2023-09-12T08:17:19;21.40;;;15.07;;
21245;SDS011;10781;50.928;4.440;2023-09-12T08:19:45;21.90;;;16.23;;
21245;SDS011;10781;50.928;4.440;2023-09-12T08:22:11;23.15;;;15.30;;
21245;SDS011;10781;50.928;4.440;2023-09-12T08:24:37;25.77;;;12.65;;
21245;SDS011;10781;50.928;4.440;2023-09-12T08:27:04;18.02;;;12.18;;
21245;SDS011;10781;50.928;4.440;2023-09-12T08:29:31;14.40;;;9.98;;
21245;SDS011;10781;50.928;4.440;2023-09-12T08:31:57;11.38;;;7.95;;
21245;SDS011;10781;50.928;4.440;2023-09-12T08:34:23;13.00;;;8.70;;
21245;SDS011;10781;50.928;4.440;2023-09-12T08:36:49;14.35;;;8.55;;
21245;SDS011;10781;50.928;4.440;2023-09-12T08:39:19;12.95;;;9.85;;
21245;SDS011;10781;50.928;4.440;2023-09-12T08:41:51;15.05;;;10.23;;
21245;SDS011;10781;50.928;4.440;2023-09-12T08:44:18;21.65;;;12.32;;
21245;SDS011;10781;50.928;4.440;2023-09-12T08:46:44;16.25;;;10.95;;
21245;SDS011;10781;50.928;4.440;2023-09-12T08:49:10;20.67;;;14.68;;
21245;SDS011;10781;50.928;4.440;2023-09-12T08:51:40;18.27;;;14.07;;
21245;SDS011;10781;50.928;4.440;2023-09-12T08:54:06;19.02;;;14.60;;
21245;SDS011;10781;50.928;4.440;2023-09-12T08:56:33;19.27;;;13.40;;
21245;SDS011;10781;50.928;4.440;2023-09-12T08:59:01;15.55;;;11.75;;
21245;SDS011;10781;50.928;4.440;2023-09-12T09:01:32;15.63;;;12.82;;
21245;SDS011;10781;50.928;4.440;2023-09-12T09:03:59;16.88;;;11.00;;
21245;SDS011;10781;50.928;4.440;2023-09-12T09:06:28;13.00;;;9.35;;
21245;SDS011;10781;50.928;4.440;2023-09-12T09:08:56;16.75;;;10.63;;
21245;SDS011;10781;50.928;4.440;2023-09-12T09:11:22;17.45;;;12.15;;
21245;SDS011;10781;50.928;4.440;2023-09-12T09:13:47;18.55;;;11.95;;
21245;SDS011;10781;50.928;4.440;2023-09-12T09:16:14;18.35;;;12.52;;
21245;SDS011;10781;50.928;4.440;2023-09-12T09:21:30;16.08;;;11.10;;
21245;SDS011;10781;50.928;4.440;2023-09-12T09:24:00;13.20;;;9.00;;
21245;SDS011;10781;50.928;4.440;2023-09-12T09:29:14;13.93;;;11.93;;
21245;SDS011;10781;50.928;4.440;2023-09-12T09:31:45;16.75;;;12.70;;
21245;SDS011;10781;50.928;4.440;2023-09-12T09:34:17;16.85;;;11.05;;
21245;SDS011;10781;50.928;4.440;2023-09-12T09:36:50;15.90;;;11.77;;
21245;SDS011;10781;50.928;4.440;2023-09-12T09:39:17;17.23;;;10.93;;
21245;SDS011;10781;50.928;4.440;2023-09-12T09:41:47;14.85;;;8.90;;
21245;SDS011;10781;50.928;4.440;2023-09-12T09:44:17;12.63;;;10.35;;
21245;SDS011;10781;50.928;4.440;2023-09-12T09:46:44;14.02;;;11.27;;
21245;SDS011;10781;50.928;4.440;2023-09-12T09:49:11;19.77;;;11.98;;
21245;SDS011;10781;50.928;4.440;2023-09-12T09:51:40;16.45;;;11.75;;
21245;SDS011;10781;50.928;4.440;2023-09-12T09:54:08;19.98;;;12.85;;
21245;SDS011;10781;50.928;4.440;2023-09-12T09:56:44;16.02;;;12.07;;
21245;SDS011;10781;50.928;4.440;2023-09-12T09:59:18;13.40;;;10.48;;
21245;SDS011;10781;50.928;4.440;2023-09-12T10:01:48;18.90;;;13.30;;
21245;SDS011;10781;50.928;4.440;2023-09-12T10:04:15;18.77;;;11.77;;
21245;SDS011;10781;50.928;4.440;2023-09-12T10:06:43;15.27;;;11.25;;
21245;SDS011;10781;50.928;4.440;2023-09-12T10:09:10;15.13;;;11.68;;
21245;SDS011;10781;50.928;4.440;2023-09-12T10:11:38;16.13;;;12.77;;
21245;SDS011;10781;50.928;4.440;2023-09-12T10:14:05;16.17;;;11.82;;
21245;SDS011;10781;50.928;4.440;2023-09-12T10:16:32;14.45;;;11.20;;
21245;SDS011;10781;50.928;4.440;2023-09-12T10:24:29;17.02;;;11.90;;
21245;SDS011;10781;50.928;4.440;2023-09-12T10:26:56;16.63;;;12.45;;
21245;SDS011;10781;50.928;4.440;2023-09-12T10:29:23;15.15;;;11.00;;
21245;SDS011;10781;50.928;4.440;2023-09-12T10:31:49;14.60;;;9.90;;
21245;SDS011;10781;50.928;4.440;2023-09-12T10:34:14;13.38;;;10.00;;
21245;SDS011;10781;50.928;4.440;2023-09-12T10:36:41;12.65;;;10.45;;
21245;SDS011;10781;50.928;4.440;2023-09-12T10:39:08;11.32;;;9.25;;
21245;SDS011;10781;50.928;4.440;2023-09-12T10:41:37;13.82;;;9.15;;
21245;SDS011;10781;50.928;4.440;2023-09-12T10:44:09;12.25;;;9.55;;
21245;SDS011;10781;50.928;4.440;2023-09-12T10:46:40;16.05;;;9.45;;
21245;SDS011;10781;50.928;4.440;2023-09-12T10:49:07;11.05;;;8.60;;
21245;SDS011;10781;50.928;4.440;2023-09-12T10:51:43;13.05;;;8.30;;
21245;SDS011;10781;50.928;4.440;2023-09-12T10:54:14;12.82;;;6.70;;
21245;SDS011;10781;50.928;4.440;2023-09-12T11:04:56;9.65;;;6.85;;
21245;SDS011;10781;50.928;4.440;2023-09-12T11:07:32;6.43;;;5.60;;
21245;SDS011;10781;50.928;4.440;2023-09-12T11:10:18;9.35;;;6.38;;
21245;SDS011;10781;50.928;4.440;2023-09-12T11:12:45;10.57;;;5.82;;
21245;SDS011;10781;50.928;4.440;2023-09-12T11:15:12;6.80;;;5.30;;
21245;SDS011;10781;50.928;4.440;2023-09-12T11:17:40;7.15;;;5.55;;
21245;SDS011;10781;50.928;4.440;2023-09-12T11:20:07;7.43;;;5.28;;
21245;SDS011;10781;50.928;4.440;2023-09-12T11:22:37;9.52;;;6.00;;
21245;SDS011;10781;50.928;4.440;2023-09-12T11:25:04;10.10;;;6.20;;
21245;SDS011;10781;50.928;4.440;2023-09-12T11:30:23;9.48;;;5.90;;
21245;SDS011;10781;50.928;4.440;2023-09-12T11:33:01;10.05;;;6.30;;
21245;SDS011;10781;50.928;4.440;2023-09-12T11:35:30;8.68;;;6.10;;
21245;SDS011;10781;50.928;4.440;2023-09-12T11:38:02;12.35;;;9.85;;
21245;SDS011;10781;50.928;4.440;2023-09-12T11:43:03;11.35;;;6.57;;
21245;SDS011;10781;50.928;4.440;2023-09-12T11:45:30;8.05;;;5.80;;
21245;SDS011;10781;50.928;4.440;2023-09-12T11:47:57;8.40;;;6.20;;
21245;SDS011;10781;50.928;4.440;2023-09-12T11:50:30;8.57;;;6.32;;
21245;SDS011;10781;50.928;4.440;2023-09-12T11:53:01;7.32;;;6.07;;
21245;SDS011;10781;50.928;4.440;2023-09-12T11:55:35;8.50;;;6.53;;
21245;SDS011;10781;50.928;4.440;2023-09-12T11:58:08;8.07;;;6.40;;
21245;SDS011;10781;50.928;4.440;2023-09-12T12:00:33;8.30;;;5.72;;
21245;SDS011;10781;50.928;4.440;2023-09-12T12:02:59;8.63;;;6.03;;
21245;SDS011;10781;50.928;4.440;2023-09-12T12:05:25;12.88;;;6.30;;
21245;SDS011;10781;50.928;4.440;2023-09-12T12:07:51;9.88;;;5.93;;
21245;SDS011;10781;50.928;4.440;2023-09-12T12:10:17;9.45;;;5.88;;
21245;SDS011;10781;50.928;4.440;2023-09-12T12:12:46;5.90;;;4.90;;
21245;SDS011;10781;50.928;4.440;2023-09-12T12:15:12;7.93;;;5.18;;
21245;SDS011;10781;50.928;4.440;2023-09-12T12:17:40;5.80;;;4.28;;
21245;SDS011;10781;50.928;4.440;2023-09-12T12:20:06;10.60;;;5.00;;
21245;SDS011;10781;50.928;4.440;2023-09-12T12:22:35;6.05;;;4.97;;
21245;SDS011;10781;50.928;4.440;2023-09-12T12:25:10;8.38;;;5.30;;
21245;SDS011;10781;50.928;4.440;2023-09-12T12:27:37;7.10;;;4.68;;
21245;SDS011;10781;50.928;4.440;2023-09-12T12:30:05;6.65;;;4.88;;
21245;SDS011;10781;50.928;4.440;2023-09-12T12:32:32;9.82;;;4.55;;
21245;SDS011;10781;50.928;4.440;2023-09-12T12:34:58;7.10;;;5.55;;
21245;SDS011;10781;50.928;4.440;2023-09-12T12:37:29;6.75;;;4.65;;
21245;SDS011;10781;50.928;4.440;2023-09-12T12:39:56;6.88;;;5.43;;
21245;SDS011;10781;50.928;4.440;2023-09-12T12:42:22;7.75;;;5.60;;
21245;SDS011;10781;50.928;4.440;2023-09-12T12:44:55;6.32;;;5.10;;
21245;SDS011;10781;50.928;4.440;2023-09-12T12:47:21;9.75;;;5.40;;
21245;SDS011;10781;50.928;4.440;2023-09-12T12:49:50;8.38;;;5.55;;
21245;SDS011;10781;50.928;4.440;2023-09-12T12:52:22;9.35;;;5.65;;
21245;SDS011;10781;50.928;4.440;2023-09-12T12:54:49;9.68;;;5.88;;
21245;SDS011;10781;50.928;4.440;2023-09-12T12:57:18;13.15;;;6.97;;
21245;SDS011;10781;50.928;4.440;2023-09-12T12:59:45;7.32;;;6.22;;
21245;SDS011;10781;50.928;4.440;2023-09-12T13:02:15;8.00;;;6.10;;
21245;SDS011;10781;50.928;4.440;2023-09-12T13:04:41;8.02;;;6.25;;
21245;SDS011;10781;50.928;4.440;2023-09-12T13:07:07;7.32;;;5.93;;
21245;SDS011;10781;50.928;4.440;2023-09-12T13:09:33;9.48;;;6.75;;
21245;SDS011;10781;50.928;4.440;2023-09-12T13:11:59;11.38;;;6.05;;
21245;SDS011;10781;50.928;4.440;2023-09-12T13:14:25;6.10;;;5.38;;
21245;SDS011;10781;50.928;4.440;2023-09-12T13:16:56;6.97;;;6.22;;
21245;SDS011;10781;50.928;4.440;2023-09-12T13:19:25;7.70;;;6.38;;
21245;SDS011;10781;50.928;4.440;2023-09-12T13:21:51;9.18;;;6.45;;
21245;SDS011;10781;50.928;4.440;2023-09-12T13:24:17;11.45;;;6.88;;
21245;SDS011;10781;50.928;4.440;2023-09-12T13:26:43;12.27;;;7.20;;
21245;SDS011;10781;50.928;4.440;2023-09-12T13:29:08;10.68;;;7.07;;
21245;SDS011;10781;50.928;4.440;2023-09-12T13:31:35;11.25;;;7.45;;
21245;SDS011;10781;50.928;4.440;2023-09-12T13:34:01;10.55;;;7.40;;
21245;SDS011;10781;50.928;4.440;2023-09-12T13:36:27;11.27;;;6.72;;
21245;SDS011;10781;50.928;4.440;2023-09-12T13:38:52;13.93;;;7.85;;
21245;SDS011;10781;50.928;4.440;2023-09-12T13:41:18;9.52;;;7.30;;
21245;SDS011;10781;50.928;4.440;2023-09-12T13:43:44;10.05;;;7.75;;
21245;SDS011;10781;50.928;4.440;2023-09-12T13:46:13;12.48;;;7.78;;
21245;SDS011;10781;50.928;4.440;2023-09-12T13:48:38;11.60;;;8.07;;
21245;SDS011;10781;50.928;4.440;2023-09-12T13:51:04;12.10;;;8.13;;
21245;SDS011;10781;50.928;4.440;2023-09-12T13:53:30;13.40;;;8.07;;
21245;SDS011;10781;50.928;4.440;2023-09-12T13:55:56;11.43;;;8.82;;
21245;SDS011;10781;50.928;4.440;2023-09-12T13:58:23;13.85;;;8.73;;
21245;SDS011;10781;50.928;4.440;2023-09-12T14:00:49;12.82;;;8.00;;
21245;SDS011;10781;50.928;4.440;2023-09-12T14:03:16;11.75;;;8.35;;
21245;SDS011;10781;50.928;4.440;2023-09-12T14:05:41;11.10;;;8.13;;
21245;SDS011;10781;50.928;4.440;2023-09-12T14:08:07;8.93;;;7.80;;
21245;SDS011;10781;50.928;4.440;2023-09-12T14:10:32;11.30;;;7.80;;
21245;SDS011;10781;50.928;4.440;2023-09-12T14:12:58;8.13;;;7.28;;
21245;SDS011;10781;50.928;4.440;2023-09-12T14:15:24;9.50;;;7.53;;
21245;SDS011;10781;50.928;4.440;2023-09-12T14:17:50;10.55;;;7.45;;
21245;SDS011;10781;50.928;4.440;2023-09-12T14:20:16;10.02;;;8.23;;
21245;SDS011;10781;50.928;4.440;2023-09-12T14:22:42;13.20;;;7.65;;
21245;SDS011;10781;50.928;4.440;2023-09-12T14:25:08;12.85;;;8.27;;
21245;SDS011;10781;50.928;4.440;2023-09-12T14:27:39;9.75;;;7.15;;
21245;SDS011;10781;50.928;4.440;2023-09-12T14:30:09;8.82;;;7.40;;
21245;SDS011;10781;50.928;4.440;2023-09-12T14:32:36;9.52;;;7.47;;
21245;SDS011;10781;50.928;4.440;2023-09-12T14:35:02;14.35;;;7.88;;
21245;SDS011;10781;50.928;4.440;2023-09-12T14:37:28;11.77;;;7.97;;
21245;SDS011;10781;50.928;4.440;2023-09-12T14:39:54;12.85;;;8.25;;
21245;SDS011;10781;50.928;4.440;2023-09-12T14:42:23;12.93;;;8.50;;
21245;SDS011;10781;50.928;4.440;2023-09-12T14:44:48;9.98;;;7.72;;
21245;SDS011;10781;50.928;4.440;2023-09-12T14:47:14;10.73;;;7.88;;
21245;SDS011;10781;50.928;4.440;2023-09-12T14:49:40;15.00;;;8.20;;
21245;SDS011;10781;50.928;4.440;2023-09-12T14:52:06;10.95;;;7.47;;
21245;SDS011;10781;50.928;4.440;2023-09-12T14:54:31;10.20;;;6.80;;